You are listening to:
RJAA Radar 133.35 - Tokyo, Japan

RJAA 051700Z 33006KT 9999 FEW020 BKN030 BKN070 07/04 Q1030 NOSIG RMK 1CU020 5SC030 7AC070 A3043

If stream doesn't start automatically press the play button
If stream stops then reload player then press play